Time;durP1;ratioP1;P1;durP2;ratioP2;P2;SDS_P1;SDS_P2;PMS_P1;PMS_P2;Temp;Humidity;BMP_temperature;BMP_pressure;BME280_temperature;BME280_humidity;BME280_pressure;Samples;Min_cycle;Max_cycle;Signal;HPM_P1;HPM_P2
2022/09/20 00:02:18;;;;;;;11.67;3.50;;;;;;;-150.27;100.00;61272.81;5215256;28;20557;-72
2022/09/20 00:04:49;;;;;;;11.40;3.63;;;;;;;-150.27;100.00;61272.81;5215751;28;20072;-74
2022/09/20 00:07:21;;;;;;;9.87;3.63;;;;;;;-150.27;100.00;61272.81;5216117;28;20034;-75
2022/09/20 00:09:52;;;;;;;12.13;3.37;;;;;;;-150.27;100.00;61272.81;5215385;28;20053;-74
2022/09/20 00:12:23;;;;;;;9.80;3.67;;;;;;;-150.27;100.00;61272.81;5215502;28;20025;-74
2022/09/20 00:14:55;;;;;;;7.03;3.30;;;;;;;-150.27;100.00;61272.81;5214183;28;20018;-74
2022/09/20 00:17:26;;;;;;;9.27;3.73;;;;;;;-150.27;100.00;61272.81;5214137;28;20457;-72
2022/09/20 00:19:57;;;;;;;7.83;4.17;;;;;;;-150.27;100.00;61272.81;5215184;28;20025;-74
2022/09/20 00:22:29;;;;;;;8.50;4.53;;;;;;;-150.27;100.00;61272.81;5215229;28;20030;-74
2022/09/20 00:25:00;;;;;;;8.20;3.70;;;;;;;-150.27;100.00;61272.81;5215350;28;20457;-74
2022/09/20 00:27:31;;;;;;;10.97;4.60;;;;;;;-150.27;100.00;61272.81;5214587;28;20103;-73
2022/09/20 00:30:03;;;;;;;12.50;4.33;;;;;;;-150.27;100.00;61272.81;5212783;28;20029;-73
2022/09/20 00:32:34;;;;;;;13.47;4.70;;;;;;;-150.27;100.00;61272.81;5214643;28;20037;-73
2022/09/20 00:35:06;;;;;;;9.53;3.90;;;;;;;-150.27;100.00;61272.81;5214296;28;20065;-73
2022/09/20 00:37:41;;;;;;;10.60;3.93;;;;;;;-150.27;100.00;61272.81;5214711;28;20034;-73
2022/09/20 00:40:19;;;;;;;8.50;4.57;;;;;;;-150.27;100.00;61272.81;5215106;28;20034;-73
2022/09/20 00:42:50;;;;;;;7.80;4.07;;;;;;;-150.27;100.00;61272.81;5215484;28;20037;-73
2022/09/20 00:45:27;;;;;;;8.10;3.70;;;;;;;-150.27;100.00;61272.81;5213116;28;20432;-73
2022/09/20 00:48:13;;;;;;;8.30;4.40;;;;;;;-150.27;100.00;61272.81;5213813;28;20602;-73
2022/09/20 00:50:50;;;;;;;14.10;4.00;;;;;;;-150.27;100.00;61272.81;5214546;28;20038;-73
2022/09/20 00:53:32;;;;;;;12.47;4.13;;;;;;;-150.27;100.00;61272.81;5214221;28;20488;-74
2022/09/20 00:56:08;;;;;;;7.03;3.87;;;;;;;-150.27;100.00;61272.81;5215087;28;20042;-73
2022/09/20 00:58:45;;;;;;;10.50;4.30;;;;;;;-150.27;100.00;61272.81;5214210;28;20492;-73
2022/09/20 01:01:17;;;;;;;7.80;3.67;;;;;;;-150.27;100.00;61272.81;5213283;28;20370;-74
2022/09/20 01:03:48;;;;;;;7.80;4.30;;;;;;;-150.27;100.00;61272.81;5213683;28;20064;-73
2022/09/20 01:06:20;;;;;;;10.23;4.50;;;;;;;-150.27;100.00;61272.81;5213813;28;20044;-74
2022/09/20 01:08:53;;;;;;;9.10;4.03;;;;;;;-150.27;100.00;61272.81;5249569;22;20716;-73
2022/09/20 01:11:25;;;;;;;9.70;4.07;;;;;;;-150.27;100.00;61272.81;5193661;28;20033;-73
2022/09/20 01:13:56;;;;;;;9.23;4.23;;;;;;;-150.27;100.00;61272.81;5193123;28;20034;-74
2022/09/20 01:16:30;;;;;;;9.40;3.53;;;;;;;-150.27;100.00;61272.81;5193740;28;20037;-73
2022/09/20 01:19:13;;;;;;;8.30;3.80;;;;;;;-150.27;100.00;61272.81;5194397;28;20026;-73
2022/09/20 01:21:47;;;;;;;9.70;4.17;;;;;;;-150.27;100.00;61272.81;5193365;28;20030;-73
2022/09/20 01:24:30;;;;;;;8.60;3.33;;;;;;;-150.27;100.00;61272.81;5193685;28;20293;-73
2022/09/20 01:27:05;;;;;;;10.17;3.57;;;;;;;-150.27;100.00;61272.81;5194274;28;20493;-73
2022/09/20 01:29:56;;;;;;;9.18;4.05;;;;;;;-150.27;100.00;61272.81;5192573;28;20030;-74
2022/09/20 01:32:53;;;;;;;7.70;3.97;;;;;;;-150.27;100.00;61272.81;5193438;28;20025;-73
2022/09/20 01:35:27;;;;;;;8.50;3.53;;;;;;;-150.27;100.00;61272.81;5193086;28;20048;-73
2022/09/20 01:38:20;;;;;;;12.23;3.83;;;;;;;-150.27;100.00;61272.81;5193871;28;20330;-73
2022/09/20 01:41:22;;;;;;;11.30;4.40;;;;;;;-150.27;100.00;61272.81;5205612;28;20071;-73
2022/09/20 01:44:03;;;;;;;10.00;3.50;;;;;;;-150.27;100.00;61272.81;5207663;28;20420;-74
2022/09/20 01:46:35;;;;;;;14.23;4.13;;;;;;;-150.27;100.00;61272.81;5213749;28;20034;-73
2022/09/20 01:49:18;;;;;;;9.20;3.90;;;;;;;-150.27;100.00;61272.81;5213904;28;20472;-73
2022/09/20 01:52:30;;;;;;;7.53;3.30;;;;;;;-150.27;100.00;61272.81;5214155;28;20515;-74
2022/09/20 01:55:19;;;;;;;7.67;4.07;;;;;;;-150.27;100.00;61272.81;5213801;28;20084;-74
2022/09/20 01:58:15;;;;;;;7.40;2.97;;;;;;;-150.27;100.00;61272.81;5213656;28;20080;-73
2022/09/20 02:00:55;;;;;;;10.00;3.90;;;;;;;-150.27;100.00;61272.81;5212706;28;20045;-73
2022/09/20 02:03:47;;;;;;;9.27;3.93;;;;;;;-150.27;100.00;61272.81;5213261;28;20026;-73
2022/09/20 02:06:39;;;;;;;11.97;3.40;;;;;;;-150.27;100.00;61272.81;5212059;28;20052;-73
2022/09/20 02:09:46;;;;;;;12.50;4.57;;;;;;;-150.27;100.00;61272.81;5196032;28;20045;-73
2022/09/20 02:12:39;;;;;;;8.37;3.30;;;;;;;-150.27;100.00;61272.81;5212815;28;20033;-73
2022/09/20 02:15:37;;;;;;;9.57;3.17;;;;;;;-150.27;100.00;61272.81;5211766;28;20113;-73
2022/09/20 02:18:28;;;;;;;6.53;3.33;;;;;;;-150.27;100.00;61272.81;5213088;28;20481;-73
2022/09/20 02:21:28;;;;;;;14.43;4.70;;;;;;;-150.27;100.00;61272.81;5213434;28;20030;-74
2022/09/20 02:24:12;;;;;;;6.10;3.13;;;;;;;-150.27;100.00;61272.81;5213443;28;20065;-73
2022/09/20 02:27:06;;;;;;;7.73;3.80;;;;;;;-150.27;100.00;61272.81;5212790;28;20034;-73
2022/09/20 02:29:55;;;;;;;8.87;3.47;;;;;;;-150.27;100.00;61272.81;5211721;28;20402;-73
2022/09/20 02:32:45;;;;;;;8.30;3.83;;;;;;;-150.27;100.00;61272.81;5213123;28;20034;-73
2022/09/20 02:35:52;;;;;;;8.50;3.90;;;;;;;-150.27;100.00;61272.81;5213337;28;20045;-73
2022/09/20 02:38:40;;;;;;;11.60;3.90;;;;;;;-150.27;100.00;61272.81;5213003;28;20472;-73
2022/09/20 02:41:11;;;;;;;8.53;3.80;;;;;;;-150.27;100.00;61272.81;5211351;28;20061;-74
2022/09/20 02:44:27;;;;;;;9.00;3.50;;;;;;;-150.27;100.00;61272.81;5211774;28;20118;-74
2022/09/20 02:47:08;;;;;;;;;;;;;;;-150.27;100.00;61272.81;5185640;28;20145;-73
2022/09/20 02:50:01;;;;;;;7.73;3.13;;;;;;;-150.27;100.00;61272.81;5194690;28;19918;-73
2022/09/20 02:52:43;;;;;;;8.30;3.47;;;;;;;-150.27;100.00;61272.81;5218086;28;20044;-73
2022/09/20 02:55:20;;;;;;;7.60;3.57;;;;;;;-150.27;100.00;61272.81;5212471;28;20117;-73
2022/09/20 02:58:14;;;;;;;12.97;3.87;;;;;;;-150.27;100.00;61272.81;5212401;28;20068;-73
2022/09/20 03:00:56;;;;;;;7.90;3.57;;;;;;;-150.27;100.00;61272.81;5211723;28;20550;-73
2022/09/20 03:03:43;;;;;;;8.60;4.10;;;;;;;-150.27;100.00;61272.81;5211963;28;20030;-73
2022/09/20 03:06:36;;;;;;;8.83;3.73;;;;;;;-150.27;100.00;61272.81;5195012;28;20025;-73
2022/09/20 03:09:31;;;;;;;10.33;3.17;;;;;;;-150.27;100.00;61272.81;5212634;28;20085;-74
2022/09/20 03:12:16;;;;;;;12.00;3.47;;;;;;;-150.27;100.00;61272.81;5212852;28;20040;-73
2022/09/20 03:15:30;;;;;;;7.97;4.40;;;;;;;-150.27;100.00;61272.81;5193587;28;20680;-73
2022/09/20 03:18:10;;;;;;;11.00;3.57;;;;;;;-150.27;100.00;61272.81;5212416;28;20476;-73
2022/09/20 03:21:12;;;;;;;7.70;3.60;;;;;;;-150.27;100.00;61272.81;5212453;28;20033;-74
2022/09/20 03:23:49;;;;;;;9.73;3.90;;;;;;;-150.27;100.00;61272.81;5212056;28;20431;-73
2022/09/20 03:26:51;;;;;;;12.27;4.17;;;;;;;-150.27;100.00;61272.81;5211918;28;20029;-73
2022/09/20 03:29:48;;;;;;;8.27;3.60;;;;;;;-150.27;100.00;61272.81;5217356;28;20026;-73
2022/09/20 03:32:49;;;;;;;8.40;4.10;;;;;;;-150.27;100.00;61272.81;5181917;28;20084;-73
2022/09/20 03:35:39;;;;;;;12.50;4.57;;;;;;;-150.27;100.00;61272.81;5218927;28;20018;-73
2022/09/20 03:38:54;;;;;;;10.40;4.43;;;;;;;-150.27;100.00;61272.81;5219147;28;20037;-73
2022/09/20 03:41:44;;;;;;;12.45;4.07;;;;;;;-150.27;100.00;61272.81;5218821;28;20072;-73
2022/09/20 03:44:49;;;;;;;10.77;4.50;;;;;;;-150.27;100.00;61272.81;5200057;28;20034;-74
2022/09/20 03:47:46;;;;;;;10.38;4.60;;;;;;;-150.27;100.00;61272.81;5200283;28;20152;-73
2022/09/20 03:50:30;;;;;;;11.60;4.80;;;;;;;-150.27;100.00;61272.81;5218483;28;20377;-74
2022/09/20 03:53:27;;;;;;;8.57;4.35;;;;;;;-150.27;100.00;61272.81;5218601;28;20045;-73
2022/09/20 03:56:17;;;;;;;11.80;4.70;;;;;;;-150.27;100.00;61272.81;5218871;28;20125;-73
2022/09/20 03:59:13;;;;;;;8.70;3.97;;;;;;;-150.27;100.00;61272.81;5199451;28;20029;-73
2022/09/20 04:02:12;;;;;;;8.07;4.40;;;;;;;-150.27;100.00;61272.81;5216867;28;20041;-74
2022/09/20 04:05:06;;;;;;;8.93;5.27;;;;;;;-150.27;100.00;61272.81;5218462;28;20069;-73
2022/09/20 04:08:18;;;;;;;8.73;4.43;;;;;;;-150.27;100.00;61272.81;5216411;28;20073;-73
2022/09/20 04:11:27;;;;;;;10.80;4.40;;;;;;;-150.27;100.00;61272.81;5218821;28;20042;-73
2022/09/20 04:14:13;;;;;;;7.00;3.70;;;;;;;-150.27;100.00;61272.81;5199878;28;20029;-73
2022/09/20 04:16:54;;;;;;;7.37;4.37;;;;;;;-150.27;100.00;61272.81;5200940;28;20117;-73
2022/09/20 04:19:30;;;;;;;6.43;4.50;;;;;;;-150.27;100.00;61272.81;5218146;28;20029;-73
2022/09/20 04:22:02;;;;;;;9.80;4.20;;;;;;;-150.27;100.00;61272.81;5218399;28;20026;-73
2022/09/20 04:24:49;;;;;;;8.40;3.83;;;;;;;-150.27;100.00;61272.81;5218346;28;20041;-73
2022/09/20 04:27:45;;;;;;;8.93;4.17;;;;;;;-150.27;100.00;61272.81;5217482;28;20037;-73
2022/09/20 04:30:20;;;;;;;11.03;4.70;;;;;;;-150.27;100.00;61272.81;5214511;28;20546;-74
2022/09/20 04:33:00;;;;;;;10.23;4.97;;;;;;;-150.27;100.00;61272.81;5218363;28;20068;-75
2022/09/20 04:38:37;;;;;;;13.70;3.92;;;;;;;-150.27;100.00;61272.81;5216763;28;20623;-77
2022/09/20 04:41:27;;;;;;;8.10;3.63;;;;;;;-150.27;100.00;61272.81;5215661;28;20117;-75
2022/09/20 04:44:26;;;;;;;12.83;3.97;;;;;;;-150.27;100.00;61272.81;5214015;28;20037;-74
2022/09/20 04:47:22;;;;;;;9.60;4.03;;;;;;;-150.27;100.00;61272.81;5215268;28;20398;-74
2022/09/20 04:50:15;;;;;;;7.87;4.50;;;;;;;-150.27;100.00;61272.81;5197423;28;20026;-74
2022/09/20 04:53:09;;;;;;;12.60;4.80;;;;;;;-150.27;100.00;61272.81;5214974;28;20026;-74
2022/09/20 04:56:00;;;;;;;12.43;5.33;;;;;;;-150.27;100.00;61272.81;5213588;28;20025;-74
2022/09/20 04:58:37;;;;;;;10.27;4.07;;;;;;;-150.27;100.00;61272.81;5211650;28;20034;-74
2022/09/20 05:01:15;;;;;;;10.20;4.57;;;;;;;-150.27;100.00;61272.81;5213103;28;20029;-74
2022/09/20 05:04:20;;;;;;;6.67;4.03;;;;;;;-150.27;100.00;61272.81;5176291;28;20053;-74
2022/09/20 05:07:04;;;;;;;8.38;4.30;;;;;;;-150.27;100.00;61272.81;5194331;28;20034;-74
2022/09/20 05:10:02;;;;;;;9.67;4.57;;;;;;;-150.27;100.00;61272.81;5193936;28;20074;-73
2022/09/20 05:12:36;;;;;;;9.53;4.37;;;;;;;-150.27;100.00;61272.81;5200695;28;20029;-73
2022/09/20 05:15:27;;;;;;;8.15;4.30;;;;;;;-150.27;100.00;61272.81;5213859;28;20412;-73
2022/09/20 05:18:33;;;;;;;6.70;3.73;;;;;;;-150.27;100.00;61272.81;5214499;28;20371;-74
2022/09/20 05:21:38;;;;;;;10.77;3.43;;;;;;;-150.27;100.00;61272.81;5213996;28;20025;-74
2022/09/20 05:24:31;;;;;;;8.37;3.70;;;;;;;-150.27;100.00;61272.81;5212805;28;20040;-74
2022/09/20 05:27:15;;;;;;;5.63;3.70;;;;;;;-150.27;100.00;61272.81;5213376;28;20041;-74
2022/09/20 05:30:09;;;;;;;9.33;3.53;;;;;;;-150.27;100.00;61272.81;5211835;28;20037;-74
2022/09/20 05:32:59;;;;;;;8.67;3.83;;;;;;;-150.27;100.00;61272.81;5213865;28;20025;-74
2022/09/20 05:35:55;;;;;;;8.93;4.87;;;;;;;-150.27;100.00;61272.81;5217251;28;20033;-73
2022/09/20 05:38:42;;;;;;;12.10;4.53;;;;;;;-150.27;100.00;61272.81;5212382;28;20022;-74
2022/09/20 05:41:41;;;;;;;9.00;4.27;;;;;;;-150.27;100.00;61272.81;5213398;28;20058;-74
2022/09/20 05:44:41;;;;;;;10.23;4.27;;;;;;;-150.27;100.00;61272.81;5212120;28;20373;-74
2022/09/20 05:47:22;;;;;;;15.17;4.80;;;;;;;-150.27;100.00;61272.81;5213303;28;20044;-74
2022/09/20 05:49:56;;;;;;;8.53;3.80;;;;;;;-150.27;100.00;61272.81;5212890;28;20018;-74
2022/09/20 05:53:09;;;;;;;6.32;3.90;;;;;;;-150.27;100.00;61272.81;5212871;28;20056;-74
2022/09/20 05:56:05;;;;;;;11.97;5.40;;;;;;;-150.27;100.00;61272.81;5213159;28;20084;-74
2022/09/20 05:58:44;;;;;;;12.20;4.40;;;;;;;-150.27;100.00;61272.81;5212147;28;20037;-74
2022/09/20 06:01:28;;;;;;;10.53;4.67;;;;;;;-150.27;100.00;61272.81;5190747;28;20026;-74
2022/09/20 06:04:20;;;;;;;8.43;4.30;;;;;;;-150.27;100.00;61272.81;5195860;28;20602;-74
2022/09/20 06:07:00;;;;;;;6.43;3.53;;;;;;;-150.27;100.00;61272.81;5213133;28;20041;-74
2022/09/20 06:09:34;;;;;;;11.50;5.27;;;;;;;-150.27;100.00;61272.81;5213058;28;20103;-74
2022/09/20 06:12:24;;;;;;;9.32;4.20;;;;;;;-150.27;100.00;61272.81;5195502;28;20040;-73
2022/09/20 06:15:16;;;;;;;12.03;4.60;;;;;;;-150.27;100.00;61272.81;5204940;28;20070;-77
2022/09/20 06:18:11;;;;;;;7.80;4.10;;;;;;;-150.27;100.00;61272.81;5204200;28;20033;-77
2022/09/20 06:20:50;;;;;;;7.80;4.22;;;;;;;-150.27;100.00;61272.81;5186674;28;20463;-78
2022/09/20 06:23:22;;;;;;;8.63;3.60;;;;;;;-150.27;100.00;61272.81;5210154;28;20033;-76
2022/09/20 06:26:02;;;;;;;9.33;3.53;;;;;;;-150.27;100.00;61272.81;5199109;28;20040;-74
2022/09/20 06:28:38;;;;;;;12.77;4.20;;;;;;;-150.27;100.00;61272.81;5197752;28;20055;-79
2022/09/20 06:31:10;;;;;;;7.43;4.30;;;;;;;-150.27;100.00;61272.81;5203146;28;20045;-72
2022/09/20 06:33:56;;;;;;;9.27;4.23;;;;;;;-150.27;100.00;61272.81;5207193;28;20042;-76
2022/09/20 06:42:59;;;;;;;6.03;4.07;;;;;;;-150.27;100.00;61272.81;5181854;28;20473;-75
2022/09/20 06:45:30;;;;;;;7.75;4.13;;;;;;;-150.27;100.00;61272.81;5204940;28;20026;-78
2022/09/20 06:48:02;;;;;;;5.87;4.17;;;;;;;-150.27;100.00;61272.81;5199868;28;20034;-76
2022/09/20 06:50:35;;;;;;;7.40;4.20;;;;;;;-150.27;100.00;61272.81;5208848;28;20038;-78
2022/09/20 06:53:06;;;;;;;8.57;4.50;;;;;;;-150.27;100.00;61272.81;5186942;28;20026;-75
2022/09/20 06:55:39;;;;;;;10.00;4.13;;;;;;;-150.27;100.00;61272.81;5205700;28;20083;-77
2022/09/20 06:58:11;;;;;;;8.27;4.77;;;;;;;-150.27;100.00;61272.81;5204201;28;20037;-77
2022/09/20 07:00:42;;;;;;;12.97;4.63;;;;;;;-150.27;100.00;61272.81;5211899;28;20022;-78
2022/09/20 07:03:13;;;;;;;9.60;4.93;;;;;;;-150.27;100.00;61272.81;5210885;28;20104;-72
2022/09/20 07:05:46;;;;;;;12.10;5.17;;;;;;;-150.27;100.00;61272.81;5209279;28;20045;-74
2022/09/20 07:08:18;;;;;;;18.93;4.87;;;;;;;-150.27;100.00;61272.81;5215741;28;20711;-74
2022/09/20 07:10:49;;;;;;;6.20;4.30;;;;;;;-150.27;100.00;61272.81;5211302;28;20224;-76
2022/09/20 07:13:21;;;;;;;8.17;4.10;;;;;;;-150.27;100.00;61272.81;5210024;28;20080;-77
2022/09/20 07:16:00;;;;;;;11.93;5.23;;;;;;;-150.27;100.00;61272.81;5187090;28;20120;-79
2022/09/20 07:18:32;;;;;;;8.97;4.20;;;;;;;-150.27;100.00;61272.81;5198476;28;20107;-78
2022/09/20 07:21:05;;;;;;;15.30;6.47;;;;;;;-150.27;100.00;61272.81;5206210;28;20084;-80
2022/09/20 07:23:36;;;;;;;7.53;4.97;;;;;;;-150.27;100.00;61272.81;5209953;28;20025;-82
2022/09/20 07:26:23;;;;;;;7.63;4.70;;;;;;;-150.27;100.00;61272.81;5210859;28;20040;-77
2022/09/20 07:28:54;;;;;;;9.10;4.50;;;;;;;-150.27;100.00;61272.81;5189269;28;20037;-77
2022/09/20 07:31:29;;;;;;;9.33;5.07;;;;;;;-150.27;100.00;61272.81;5209695;28;20393;-80
2022/09/20 07:34:00;;;;;;;7.17;5.27;;;;;;;-150.27;100.00;61272.81;5208841;28;20106;-79
2022/09/20 07:36:32;;;;;;;8.30;4.40;;;;;;;-150.27;100.00;61272.81;5211923;28;20192;-79
2022/09/20 07:39:03;;;;;;;11.17;4.57;;;;;;;-150.27;100.00;61272.81;5211038;28;20022;-77
2022/09/20 07:41:34;;;;;;;6.63;4.03;;;;;;;-150.27;100.00;61272.81;5210119;28;20416;-77
2022/09/20 07:44:23;;;;;;;7.27;3.70;;;;;;;-150.27;100.00;61272.81;5216053;28;20041;-77
2022/09/20 07:46:59;;;;;;;8.10;3.50;;;;;;;-150.27;100.00;61272.81;5189435;28;20045;-79
2022/09/20 07:49:30;;;;;;;7.77;3.40;;;;;;;-150.27;100.00;61272.81;5191253;28;20184;-78
2022/09/20 07:52:03;;;;;;;6.13;3.23;;;;;;;-150.27;100.00;61272.81;5206631;28;20122;-82
2022/09/20 07:54:34;;;;;;;8.07;3.20;;;;;;;-150.27;100.00;61272.81;5194376;28;20076;-78
2022/09/20 07:57:05;;;;;;;8.53;3.27;;;;;;;-150.27;100.00;61272.81;5212121;28;20030;-82
2022/09/20 07:59:36;;;;;;;9.07;3.37;;;;;;;-150.27;100.00;61272.81;5210056;28;20032;-80
2022/09/20 08:02:14;;;;;;;6.60;3.50;;;;;;;-150.27;100.00;61272.81;5211629;28;20048;-78
2022/09/20 08:04:48;;;;;;;8.20;3.00;;;;;;;-150.27;100.00;61272.81;5192728;28;20022;-80
2022/09/20 08:07:20;;;;;;;9.20;3.58;;;;;;;-150.27;100.00;61272.81;5211424;28;20026;-79
2022/09/20 08:09:51;;;;;;;4.80;2.50;;;;;;;-150.27;100.00;61272.81;5211407;28;20046;-80
2022/09/20 08:12:22;;;;;;;6.47;3.53;;;;;;;-150.27;100.00;61272.81;5211927;28;20054;-77
2022/09/20 08:14:54;;;;;;;9.67;3.87;;;;;;;-150.27;100.00;61272.81;5212501;28;20033;-80
2022/09/20 08:17:25;;;;;;;8.10;2.93;;;;;;;-150.27;100.00;61272.81;5197317;28;20113;-75
2022/09/20 08:19:56;;;;;;;14.40;2.63;;;;;;;-150.27;100.00;61272.81;5214770;28;20026;-76
2022/09/20 08:22:27;;;;;;;8.03;3.50;;;;;;;-150.27;100.00;61272.81;5197861;28;20053;-77
2022/09/20 08:24:59;;;;;;;10.10;2.53;;;;;;;-150.27;100.00;61272.81;5215366;28;20076;-81
2022/09/20 08:27:30;;;;;;;6.90;2.63;;;;;;;-150.27;100.00;61272.81;5214915;28;20033;-76
2022/09/20 08:30:02;;;;;;;7.43;1.93;;;;;;;-150.27;100.00;61272.81;5209677;28;20243;-72
2022/09/20 08:32:33;;;;;;;13.37;2.87;;;;;;;-150.27;100.00;61272.81;5201181;28;21095;-78
2022/09/20 08:35:05;;;;;;;6.47;2.23;;;;;;;-150.27;100.00;61272.81;5212256;28;20042;-79
2022/09/20 08:37:36;;;;;;;7.10;1.90;;;;;;;-150.27;100.00;61272.81;5212218;28;20034;-77
2022/09/20 08:40:14;;;;;;;7.97;2.42;;;;;;;-150.27;100.00;61272.81;5208733;28;20030;-79
2022/09/20 08:42:45;;;;;;;8.20;2.45;;;;;;;-150.27;100.00;61272.81;5206073;28;20044;-78
2022/09/20 08:45:20;;;;;;;6.43;2.00;;;;;;;-150.27;100.00;61272.81;5213289;28;20087;-75
2022/09/20 08:48:00;;;;;;;10.50;2.38;;;;;;;-150.27;100.00;61272.81;5199069;28;20125;-75
2022/09/20 08:50:33;;;;;;;5.63;1.55;;;;;;;-150.27;100.00;61272.81;5210735;28;20045;-79
2022/09/20 08:53:04;;;;;;;8.05;1.42;;;;;;;-150.27;100.00;61272.81;5213249;28;20041;-75
2022/09/20 08:55:41;;;;;;;6.35;1.40;;;;;;;-150.27;100.00;61272.81;5212976;28;20030;-74
2022/09/20 08:58:13;;;;;;;5.63;1.60;;;;;;;-150.27;100.00;61272.81;5212078;28;20424;-77
2022/09/20 09:00:45;;;;;;;5.20;1.70;;;;;;;-150.27;100.00;61272.81;5209359;28;20037;-75
2022/09/20 09:03:17;;;;;;;11.18;1.70;;;;;;;-150.27;100.00;61272.81;5212896;28;20037;-76
2022/09/20 09:05:53;;;;;;;5.28;1.38;;;;;;;-150.27;100.00;61272.81;5200897;28;20033;-78
2022/09/20 09:08:32;;;;;;;7.47;1.38;;;;;;;-150.27;100.00;61272.81;5212339;28;20065;-74
2022/09/20 09:11:09;;;;;;;10.52;1.80;;;;;;;-150.27;100.00;61272.81;5193382;28;20041;-76
2022/09/20 09:14:01;;;;;;;11.75;1.48;;;;;;;-150.27;100.00;61272.81;5210339;28;20056;-75
2022/09/20 09:16:33;;;;;;;6.03;1.42;;;;;;;-150.27;100.00;61272.81;5210505;28;20025;-76
2022/09/20 09:19:32;;;;;;;7.00;1.40;;;;;;;-150.27;100.00;61272.81;5212923;28;20383;-75
2022/09/20 09:22:04;;;;;;;2.90;1.08;;;;;;;-150.27;100.00;61272.81;5208700;28;21781;-78
2022/09/20 09:24:36;;;;;;;4.63;1.13;;;;;;;-150.27;100.00;61272.81;5211677;28;20030;-76
2022/09/20 09:27:18;;;;;;;6.50;1.60;;;;;;;-150.27;100.00;61272.81;5213034;28;20032;-75
2022/09/20 09:29:51;;;;;;;7.90;1.63;;;;;;;-150.27;100.00;61272.81;5208534;28;20077;-74
2022/09/20 09:32:28;;;;;;;;;;;;;;;-150.27;100.00;61272.81;5207200;28;20440;-73
2022/09/20 09:35:24;;;;;;;6.10;1.40;;;;;;;-150.27;100.00;61272.81;5205305;28;19921;-74
2022/09/20 09:38:00;;;;;;;6.50;1.95;;;;;;;-150.27;100.00;61272.81;5195468;28;20192;-74
2022/09/20 09:40:32;;;;;;;7.60;2.17;;;;;;;-150.27;100.00;61272.81;5208656;28;20044;-77
2022/09/20 09:43:03;;;;;;;9.93;1.63;;;;;;;-150.27;100.00;61272.81;5212133;28;20026;-76
2022/09/20 09:45:39;;;;;;;9.18;1.48;;;;;;;-150.27;100.00;61272.81;5202505;28;20200;-77
2022/09/20 09:48:19;;;;;;;6.50;1.48;;;;;;;-150.27;100.00;61272.81;5208662;28;20037;-76
2022/09/20 09:51:09;;;;;;;7.90;1.38;;;;;;;-150.27;100.00;61272.81;5196712;28;20030;-77
2022/09/20 09:53:42;;;;;;;8.13;1.90;;;;;;;-150.27;100.00;61272.81;5186861;28;20385;-78
2022/09/20 09:56:16;;;;;;;10.30;1.20;;;;;;;-150.27;100.00;61272.81;5213209;28;20091;-77
2022/09/20 09:59:21;;;;;;;7.97;1.48;;;;;;;-150.27;100.00;61272.81;5196100;28;20021;-73
2022/09/20 10:02:14;;;;;;;6.47;1.63;;;;;;;-150.27;100.00;61272.81;5210091;28;20037;-79
2022/09/20 10:05:04;;;;;;;4.88;1.23;;;;;;;-150.27;100.00;61272.81;5212103;28;20125;-77
2022/09/20 10:08:09;;;;;;;6.88;1.38;;;;;;;-150.27;100.00;61272.81;5195154;28;20032;-80
2022/09/20 10:11:28;;;;;;;6.32;1.67;;;;;;;-150.27;100.00;61272.81;5211231;28;20148;-79
2022/09/20 10:14:29;;;;;;;7.10;1.10;;;;;;;-150.27;100.00;61272.81;5176008;28;20501;-75
2022/09/20 10:17:15;;;;;;;13.25;2.50;;;;;;;-150.27;100.00;61272.81;5178114;28;20026;-77
2022/09/20 10:20:06;;;;;;;9.45;1.50;;;;;;;-150.27;100.00;61272.81;5212747;28;20365;-76
2022/09/20 10:22:41;;;;;;;7.30;1.40;;;;;;;-150.27;100.00;61272.81;5191652;28;20029;-76
2022/09/20 10:25:15;;;;;;;7.18;2.13;;;;;;;-150.27;100.00;61272.81;5211970;28;20026;-77
2022/09/20 10:27:49;;;;;;;8.55;2.08;;;;;;;-150.27;100.00;61272.81;5210364;28;20607;-75
2022/09/20 10:30:33;;;;;;;16.00;2.05;;;;;;;-150.27;100.00;61272.81;5210545;28;20117;-74
2022/09/20 10:33:22;;;;;;;7.85;1.52;;;;;;;-150.27;100.00;61272.81;5211830;28;20026;-76
2022/09/20 10:36:07;;;;;;;7.67;1.47;;;;;;;-150.27;100.00;61272.81;5212025;28;20037;-73
2022/09/20 10:38:50;;;;;;;6.47;1.60;;;;;;;-150.27;100.00;61272.81;5211299;28;20420;-76
2022/09/20 10:45:07;;;;;;;6.57;1.50;;;;;;;-150.27;100.00;61272.81;5208390;28;20065;-79
2022/09/20 10:48:00;;;;;;;12.20;2.00;;;;;;;-150.27;100.00;61272.81;5211181;28;20029;-74
2022/09/20 10:50:47;;;;;;;10.77;2.07;;;;;;;-150.27;100.00;61272.81;5208571;28;20034;-75
2022/09/20 10:53:32;;;;;;;8.40;2.43;;;;;;;-150.27;100.00;61272.81;5209933;28;20050;-75
2022/09/20 10:56:22;;;;;;;8.77;1.50;;;;;;;-150.27;100.00;61272.81;5209485;28;20112;-80
2022/09/20 10:59:03;;;;;;;7.77;1.30;;;;;;;-150.27;100.00;61272.81;5193948;28;20033;-82
2022/09/20 11:01:49;;;;;;;6.57;1.53;;;;;;;-150.27;100.00;61272.81;5202848;28;20083;-77
2022/09/20 11:04:59;;;;;;;12.80;2.47;;;;;;;-150.27;100.00;61272.81;5178111;28;20073;-78
2022/09/20 11:07:55;;;;;;;12.37;1.47;;;;;;;-150.27;100.00;61272.81;5211314;28;20029;-79
2022/09/20 11:10:35;;;;;;;8.33;1.40;;;;;;;-150.27;100.00;61272.81;5209711;28;20026;-74
2022/09/20 11:13:19;;;;;;;5.27;1.43;;;;;;;-150.27;100.00;61272.81;5210190;28;20026;-78
2022/09/20 11:16:09;;;;;;;7.95;1.60;;;;;;;-150.27;100.00;61272.81;5211699;28;20030;-76
2022/09/20 11:19:09;;;;;;;11.97;1.50;;;;;;;-150.27;100.00;61272.81;5210281;28;20759;-78
2022/09/20 11:21:49;;;;;;;6.27;1.27;;;;;;;-150.27;100.00;61272.81;5208656;28;20117;-74
2022/09/20 11:24:50;;;;;;;5.70;2.00;;;;;;;-150.27;100.00;61272.81;5210600;28;20076;-77
2022/09/20 11:27:32;;;;;;;4.73;1.13;;;;;;;-150.27;100.00;61272.81;5207746;28;20368;-78
2022/09/20 11:30:07;;;;;;;9.23;1.57;;;;;;;-150.27;100.00;61272.81;5210334;28;20030;-76
2022/09/20 11:32:45;;;;;;;6.43;1.57;;;;;;;-150.27;100.00;61272.81;5190817;28;20045;-77
2022/09/20 11:35:32;;;;;;;8.97;2.03;;;;;;;-150.27;100.00;61272.81;5209839;28;20132;-78
2022/09/20 11:38:23;;;;;;;6.30;1.20;;;;;;;-150.27;100.00;61272.81;5193306;28;20037;-78
2022/09/20 11:41:01;;;;;;;4.77;1.17;;;;;;;-150.27;100.00;61272.81;5206199;28;20057;-77
2022/09/20 11:43:34;;;;;;;8.63;1.47;;;;;;;-150.27;100.00;61272.81;5208813;28;20066;-77
2022/09/20 11:46:09;;;;;;;5.50;1.30;;;;;;;-150.27;100.00;61272.81;5210856;28;20665;-74
2022/09/20 11:48:50;;;;;;;7.47;1.47;;;;;;;-150.27;100.00;61272.81;5212867;28;20104;-85
2022/09/20 11:51:35;;;;;;;3.20;1.20;;;;;;;-150.27;100.00;61272.81;5203255;28;20040;-84
2022/09/20 11:54:16;;;;;;;8.63;1.43;;;;;;;-150.27;100.00;61272.81;5215799;28;20072;-81
2022/09/20 11:56:56;;;;;;;5.30;1.20;;;;;;;-150.27;100.00;61272.81;5199831;28;20389;-84
2022/09/20 11:59:41;;;;;;;8.70;1.47;;;;;;;-150.27;100.00;61272.81;5195245;28;20026;-85
2022/09/20 12:02:30;;;;;;;6.77;1.50;;;;;;;-150.27;100.00;61272.81;5213839;28;20109;-82
2022/09/20 12:05:05;;;;;;;8.40;1.70;;;;;;;-150.27;100.00;61272.81;5203895;28;20089;-84
2022/09/20 12:07:39;;;;;;;8.07;2.00;;;;;;;-150.27;100.00;61272.81;5214768;28;20128;-81
2022/09/20 12:10:25;;;;;;;10.32;1.70;;;;;;;-150.27;100.00;61272.81;5194698;28;20025;-81
2022/09/20 12:13:18;;;;;;;8.00;1.63;;;;;;;-150.27;100.00;61272.81;5213548;28;20022;-80
2022/09/20 12:16:33;;;;;;;5.77;1.17;;;;;;;-150.27;100.00;61272.81;5213004;28;20092;-80
2022/09/20 12:19:09;;;;;;;4.32;1.30;;;;;;;-150.27;100.00;61272.81;5184583;28;20654;-77
2022/09/20 12:21:58;;;;;;;8.37;1.50;;;;;;;-150.27;100.00;61272.81;5195243;28;20088;-78
2022/09/20 12:24:35;;;;;;;4.80;0.97;;;;;;;-150.27;100.00;61272.81;5213936;28;20036;-81
2022/09/20 12:27:26;;;;;;;9.90;1.67;;;;;;;-150.27;100.00;61272.81;5214554;28;20113;-81
2022/09/20 12:30:19;;;;;;;3.83;0.80;;;;;;;-150.27;100.00;61272.81;5196960;28;20140;-77
2022/09/20 12:32:53;;;;;;;6.10;1.13;;;;;;;-150.27;100.00;61272.81;5213466;28;20029;-84